Radersburg, Montana
Current Conditions -  °F | °C
As of 12:53 PM on Friday 24 Oct 2014 (Local Time) from KHLN Reporting Station
Broken Clouds Broken Clouds  
Wind Chill: 54°   Ceiling: 8500
Heat Index: 54°   Visibility: 10mi
Dew Point: 38°   Wind: 9mph
Humidity: 55%   Direction: 300°WNW
Pressure: 30.11"   Gusts: NA
Location:  46.19°N, 111.63°W
Report Text: KHLN 241853Z 30008KT 10SM SCT070 BKN085 BKN100 12/03 A3011 RMK AO2 SLP205 T01220033
Loading
Personal Weather Stations






























Interactive Weather Map
Tropical Storm Tracking
New forecast layout! Learn more

10-Day Weather Forecast

Advertisements
Track Severe Weather on mobile